sensor_id;sensor_type;location;lat;lon;timestamp;pressure;altitude;pressure_sealevel;temperature;humidity
68489;BME280;55481;48.764;8.936;2023-04-07T00:00:15;97010;;;5.9;57
68489;BME280;55481;48.764;8.936;2023-04-07T00:05:10;97000;;;5.9;57
68489;BME280;55481;48.764;8.936;2023-04-07T00:07:40;97000;;;5.9;57
68489;BME280;55481;48.764;8.936;2023-04-07T00:12:35;97000;;;6;57.5
68489;BME280;55481;48.764;8.936;2023-04-07T00:20:08;97000;;;5.9;57.5
68489;BME280;55481;48.764;8.936;2023-04-07T00:22:39;97000;;;5.7;58
68489;BME280;55481;48.764;8.936;2023-04-07T00:25:09;96990;;;5.7;58
68489;BME280;55481;48.764;8.936;2023-04-07T00:27:41;96990;;;5.7;58.5
68489;BME280;55481;48.764;8.936;2023-04-07T00:30:11;96990;;;5.8;58
68489;BME280;55481;48.764;8.936;2023-04-07T00:32:42;96990;;;5.8;58.5
68489;BME280;55481;48.764;8.936;2023-04-07T00:35:19;96980;;;5.8;58.5
68489;BME280;55481;48.764;8.936;2023-04-07T00:37:50;96980;;;5.7;58.5
68489;BME280;55481;48.764;8.936;2023-04-07T00:40:21;96980;;;5.8;58.5
68489;BME280;55481;48.764;8.936;2023-04-07T00:42:52;96970;;;5.7;58.5
68489;BME280;55481;48.764;8.936;2023-04-07T00:50:19;96970;;;5.7;59
68489;BME280;55481;48.764;8.936;2023-04-07T00:52:49;96970;;;5.7;59
68489;BME280;55481;48.764;8.936;2023-04-07T00:55:27;96960;;;5.8;59
68489;BME280;55481;48.764;8.936;2023-04-07T00:57:50;96960;;;5.8;59
68489;BME280;55481;48.764;8.936;2023-04-07T01:00:21;96950;;;5.7;59.5
68489;BME280;55481;48.764;8.936;2023-04-07T01:02:56;96950;;;5.7;59.5
68489;BME280;55481;48.764;8.936;2023-04-07T01:10:49;96940;;;5.6;60
68489;BME280;55481;48.764;8.936;2023-04-07T01:13:04;96930;;;5.7;59.5
68489;BME280;55481;48.764;8.936;2023-04-07T01:15:32;96930;;;5.8;59.5
68489;BME280;55481;48.764;8.936;2023-04-07T01:17:58;96920;;;5.7;60
68489;BME280;55481;48.764;8.936;2023-04-07T01:20:28;96930;;;5.6;60
68489;BME280;55481;48.764;8.936;2023-04-07T01:28:19;96920;;;5.8;60
68489;BME280;55481;48.764;8.936;2023-04-07T01:30:31;96920;;;5.8;60
68489;BME280;55481;48.764;8.936;2023-04-07T01:33:01;96910;;;5.8;60
68489;BME280;55481;48.764;8.936;2023-04-07T01:35:33;96910;;;5.9;60
68489;BME280;55481;48.764;8.936;2023-04-07T01:40:34;96910;;;5.9;60
68489;BME280;55481;48.764;8.936;2023-04-07T01:43:05;96910;;;5.9;60
68489;BME280;55481;48.764;8.936;2023-04-07T01:46:58;96910;;;6;61
68489;BME280;55481;48.764;8.936;2023-04-07T01:49:20;96900;;;6.4;61
68489;BME280;55481;48.764;8.936;2023-04-07T01:51:50;96900;;;6.1;61
68489;BME280;55481;48.764;8.936;2023-04-07T01:54:21;96890;;;6.1;61
68489;BME280;55481;48.764;8.936;2023-04-07T01:56:51;96890;;;6;61
68489;BME280;55481;48.764;8.936;2023-04-07T01:59:22;96890;;;6.1;61
68489;BME280;55481;48.764;8.936;2023-04-07T02:06:57;96890;;;6.1;60.5
68489;BME280;55481;48.764;8.936;2023-04-07T02:14:34;96890;;;6.1;60.5
68489;BME280;55481;48.764;8.936;2023-04-07T02:17:04;96880;;;6;61
68489;BME280;55481;48.764;8.936;2023-04-07T02:19:35;96880;;;6;61
68489;BME280;55481;48.764;8.936;2023-04-07T02:22:06;96880;;;5.9;61
68489;BME280;55481;48.764;8.936;2023-04-07T02:24:30;96880;;;5.9;61.5
68489;BME280;55481;48.764;8.936;2023-04-07T02:27:01;96870;;;6;61
68489;BME280;55481;48.764;8.936;2023-04-07T02:34:33;96870;;;5.9;61.5
68489;BME280;55481;48.764;8.936;2023-04-07T02:37:04;96870;;;6;61.5
68489;BME280;55481;48.764;8.936;2023-04-07T02:39:34;96870;;;5.9;61.5
68489;BME280;55481;48.764;8.936;2023-04-07T02:42:12;96860;;;6;61.5
68489;BME280;55481;48.764;8.936;2023-04-07T02:44:43;96860;;;6;61.5
68489;BME280;55481;48.764;8.936;2023-04-07T02:47:14;96860;;;6;61.5
68489;BME280;55481;48.764;8.936;2023-04-07T02:49:45;96860;;;6.1;61.5
68489;BME280;55481;48.764;8.936;2023-04-07T02:54:40;96860;;;6;62
68489;BME280;55481;48.764;8.936;2023-04-07T03:02:13;96850;;;6;62
68489;BME280;55481;48.764;8.936;2023-04-07T03:04:44;96860;;;6;62
68489;BME280;55481;48.764;8.936;2023-04-07T03:07:14;96860;;;6;62
68489;BME280;55481;48.764;8.936;2023-04-07T03:09:45;96850;;;6;62
68489;BME280;55481;48.764;8.936;2023-04-07T03:12:22;96850;;;5.9;62.5
68489;BME280;55481;48.764;8.936;2023-04-07T03:14:53;96850;;;6;62.5
68489;BME280;55481;48.764;8.936;2023-04-07T03:17:24;96850;;;6;62.5
68489;BME280;55481;48.764;8.936;2023-04-07T03:19:56;96850;;;5.9;62.5
68489;BME280;55481;48.764;8.936;2023-04-07T03:24:50;96840;;;6;62.5
68489;BME280;55481;48.764;8.936;2023-04-07T03:32:23;96830;;;6.1;62.5
68489;BME280;55481;48.764;8.936;2023-04-07T03:34:54;96830;;;6;62.5
68489;BME280;55481;48.764;8.936;2023-04-07T03:37:24;96830;;;6;62.5
68489;BME280;55481;48.764;8.936;2023-04-07T03:39:55;96830;;;6;62.5
68489;BME280;55481;48.764;8.936;2023-04-07T03:42:32;96830;;;5.9;63
68489;BME280;55481;48.764;8.936;2023-04-07T03:45:10;96820;;;5.9;63
68489;BME280;55481;48.764;8.936;2023-04-07T03:47:34;96820;;;5.9;63
68489;BME280;55481;48.764;8.936;2023-04-07T03:49:58;96830;;;6;63
68489;BME280;55481;48.764;8.936;2023-04-07T03:52:29;96830;;;5.9;63
68489;BME280;55481;48.764;8.936;2023-04-07T04:02:33;96820;;;5.9;63.5
68489;BME280;55481;48.764;8.936;2023-04-07T04:05:04;96820;;;5.9;63.5
68489;BME280;55481;48.764;8.936;2023-04-07T04:07:34;96820;;;5.9;63.5
68489;BME280;55481;48.764;8.936;2023-04-07T04:10:05;96810;;;5.9;63.5
68489;BME280;55481;48.764;8.936;2023-04-07T04:12:42;96810;;;5.8;64
68489;BME280;55481;48.764;8.936;2023-04-07T04:15:20;96810;;;5.8;64
68489;BME280;55481;48.764;8.936;2023-04-07T04:17:44;96810;;;5.8;64
68489;BME280;55481;48.764;8.936;2023-04-07T04:30:12;96810;;;5.8;64
68489;BME280;55481;48.764;8.936;2023-04-07T04:32:43;96800;;;5.9;64
68489;BME280;55481;48.764;8.936;2023-04-07T04:35:13;96800;;;5.8;64
68489;BME280;55481;48.764;8.936;2023-04-07T04:37:44;96810;;;5.8;64.5
68489;BME280;55481;48.764;8.936;2023-04-07T04:50:18;96810;;;5.8;64.5
68489;BME280;55481;48.764;8.936;2023-04-07T04:55:33;96810;;;5.7;64.5
68489;BME280;55481;48.764;8.936;2023-04-07T04:58:03;96810;;;5.7;64.5
68489;BME280;55481;48.764;8.936;2023-04-07T05:00:39;96810;;;5.8;64.5
68489;BME280;55481;48.764;8.936;2023-04-07T05:05:27;96810;;;5.9;64.5
68489;BME280;55481;48.764;8.936;2023-04-07T05:07:57;96810;;;5.9;64.5
68489;BME280;55481;48.764;8.936;2023-04-07T05:10:28;96810;;;5.8;65
68489;BME280;55481;48.764;8.936;2023-04-07T05:15:39;96820;;;5.7;65
68489;BME280;55481;48.764;8.936;2023-04-07T05:18:14;96820;;;5.7;65
68489;BME280;55481;48.764;8.936;2023-04-07T05:20:44;96820;;;5.8;64.5
68489;BME280;55481;48.764;8.936;2023-04-07T05:25:31;96820;;;5.6;65.5
68489;BME280;55481;48.764;8.936;2023-04-07T05:28:02;96820;;;5.6;65.5
68489;BME280;55481;48.764;8.936;2023-04-07T05:30:33;96820;;;5.7;65.5
68489;BME280;55481;48.764;8.936;2023-04-07T05:33:04;96810;;;5.8;65
68489;BME280;55481;48.764;8.936;2023-04-07T05:35:28;96820;;;5.9;65
68489;BME280;55481;48.764;8.936;2023-04-07T05:45:31;96820;;;5.7;65.5
68489;BME280;55481;48.764;8.936;2023-04-07T05:48:02;96820;;;5.7;65.5
68489;BME280;55481;48.764;8.936;2023-04-07T05:50:33;96820;;;5.7;65.5
68489;BME280;55481;48.764;8.936;2023-04-07T05:55:34;96820;;;5.8;65
68489;BME280;55481;48.764;8.936;2023-04-07T05:58:25;96820;;;5.7;65.5
68489;BME280;55481;48.764;8.936;2023-04-07T06:00:49;96820;;;5.8;65.5
68489;BME280;55481;48.764;8.936;2023-04-07T06:05:49;96820;;;5.9;65.5
68489;BME280;55481;48.764;8.936;2023-04-07T06:08:13;96820;;;5.9;65.5
68489;BME280;55481;48.764;8.936;2023-04-07T06:10:51;96820;;;6;65.5
68489;BME280;55481;48.764;8.936;2023-04-07T06:18:23;96820;;;6;65.5
68489;BME280;55481;48.764;8.936;2023-04-07T06:20:53;96820;;;5.9;66
68489;BME280;55481;48.764;8.936;2023-04-07T06:23:24;96820;;;6.1;65.5
68489;BME280;55481;48.764;8.936;2023-04-07T06:25:54;96820;;;6.5;65
68489;BME280;55481;48.764;8.936;2023-04-07T06:28:24;96820;;;6.6;64.5
68489;BME280;55481;48.764;8.936;2023-04-07T06:33:18;96820;;;6.8;64.5
68489;BME280;55481;48.764;8.936;2023-04-07T06:35:49;96820;;;6.9;64.5
68489;BME280;55481;48.764;8.936;2023-04-07T06:38:26;96820;;;6.9;64.5
68489;BME280;55481;48.764;8.936;2023-04-07T06:45:59;96810;;;7.3;64
68489;BME280;55481;48.764;8.936;2023-04-07T06:48:29;96810;;;7.3;64
68489;BME280;55481;48.764;8.936;2023-04-07T06:50:59;96810;;;7.4;64.5
68489;BME280;55481;48.764;8.936;2023-04-07T06:56:09;96810;;;7.8;63.5
68489;BME280;55481;48.764;8.936;2023-04-07T06:58:24;96810;;;8;63.5
68489;BME280;55481;48.764;8.936;2023-04-07T07:00:55;96810;;;7.9;64
68489;BME280;55481;48.764;8.936;2023-04-07T07:03:27;96810;;;8;64
68489;BME280;55481;48.764;8.936;2023-04-07T07:06:07;96810;;;7.9;64
68489;BME280;55481;48.764;8.936;2023-04-07T07:08:40;96810;;;8.1;64
68489;BME280;55481;48.764;8.936;2023-04-07T07:13:27;96800;;;8.6;63.5
68489;BME280;55481;48.764;8.936;2023-04-07T07:15:58;96800;;;8.5;63.5
68489;BME280;55481;48.764;8.936;2023-04-07T07:18:39;96800;;;8.3;64
68489;BME280;55481;48.764;8.936;2023-04-07T07:21:11;96810;;;8.6;63.5
68489;BME280;55481;48.764;8.936;2023-04-07T07:23:31;96810;;;8.7;63.5
68489;BME280;55481;48.764;8.936;2023-04-07T07:26:02;96810;;;8.5;64
68489;BME280;55481;48.764;8.936;2023-04-07T07:28:33;96810;;;8.3;64.5
68489;BME280;55481;48.764;8.936;2023-04-07T07:31:08;96810;;;8.3;64.5
68489;BME280;55481;48.764;8.936;2023-04-07T07:33:42;96810;;;8.3;64.5
68489;BME280;55481;48.764;8.936;2023-04-07T07:41:27;96800;;;8.7;64
68489;BME280;55481;48.764;8.936;2023-04-07T07:43:44;96800;;;8.9;63.5
68489;BME280;55481;48.764;8.936;2023-04-07T07:46:15;96800;;;9.2;63.5
68489;BME280;55481;48.764;8.936;2023-04-07T07:51:09;96810;;;9.4;63.5
68489;BME280;55481;48.764;8.936;2023-04-07T07:56:13;96810;;;9.3;64
68489;BME280;55481;48.764;8.936;2023-04-07T07:58:48;96810;;;9.2;64.5
68489;BME280;55481;48.764;8.936;2023-04-07T08:01:13;96810;;;9.4;64
68489;BME280;55481;48.764;8.936;2023-04-07T08:08:59;96800;;;10.1;62.5
68489;BME280;55481;48.764;8.936;2023-04-07T08:11:34;96800;;;10.3;62.5
68489;BME280;55481;48.764;8.936;2023-04-07T08:16:15;96800;;;10.2;63
68489;BME280;55481;48.764;8.936;2023-04-07T08:18:46;96810;;;11;62
68489;BME280;55481;48.764;8.936;2023-04-07T08:21:24;96810;;;11.2;61.5
68489;BME280;55481;48.764;8.936;2023-04-07T08:23:54;96810;;;11.3;62
68489;BME280;55481;48.764;8.936;2023-04-07T08:26:19;96810;;;11;63
68489;BME280;55481;48.764;8.936;2023-04-07T08:33:45;96800;;;12.2;61.5
68489;BME280;55481;48.764;8.936;2023-04-07T08:36:15;96800;;;11.9;62
68489;BME280;55481;48.764;8.936;2023-04-07T08:38:46;96810;;;11.4;63.5
68489;BME280;55481;48.764;8.936;2023-04-07T08:41:19;96800;;;12.1;63
68489;BME280;55481;48.764;8.936;2023-04-07T08:43:49;96790;;;12.5;62
68489;BME280;55481;48.764;8.936;2023-04-07T08:46:19;96800;;;12;63.5
68489;BME280;55481;48.764;8.936;2023-04-07T08:48:56;96810;;;11.6;64
68489;BME280;55481;48.764;8.936;2023-04-07T08:51:33;96810;;;11.3;65
68489;BME280;55481;48.764;8.936;2023-04-07T08:54:12;96800;;;12.1;63.5
68489;BME280;55481;48.764;8.936;2023-04-07T09:01:36;96800;;;12;64.5
68489;BME280;55481;48.764;8.936;2023-04-07T09:04:07;96810;;;11.4;66
68489;BME280;55481;48.764;8.936;2023-04-07T09:09:01;96810;;;11.4;66
68489;BME280;55481;48.764;8.936;2023-04-07T09:11:37;96810;;;11.8;65
68489;BME280;55481;48.764;8.936;2023-04-07T09:14:02;96800;;;12.5;63
68489;BME280;55481;48.764;8.936;2023-04-07T09:18:57;96800;;;12.3;64
68489;BME280;55481;48.764;8.936;2023-04-07T09:21:45;96810;;;12.1;64.5
68489;BME280;55481;48.764;8.936;2023-04-07T09:26:29;96810;;;12.5;64
68489;BME280;55481;48.764;8.936;2023-04-07T09:29:01;96810;;;12.2;64.5
68489;BME280;55481;48.764;8.936;2023-04-07T09:31:42;96820;;;11.4;66
68489;BME280;55481;48.764;8.936;2023-04-07T09:34:02;96820;;;11.2;66.5
68489;BME280;55481;48.764;8.936;2023-04-07T09:36:40;96820;;;11.5;66
68489;BME280;55481;48.764;8.936;2023-04-07T09:39:07;96820;;;11.3;66
68489;BME280;55481;48.764;8.936;2023-04-07T09:51:59;96800;;;13.2;63
68489;BME280;55481;48.764;8.936;2023-04-07T09:54:14;96810;;;12.5;64.5
68489;BME280;55481;48.764;8.936;2023-04-07T09:59:15;96810;;;12;65.5
68489;BME280;55481;48.764;8.936;2023-04-07T10:01:39;96810;;;12;65.5
68489;BME280;55481;48.764;8.936;2023-04-07T10:04:09;96810;;;11.8;66
68489;BME280;55481;48.764;8.936;2023-04-07T10:09:12;96810;;;12.1;65.5
68489;BME280;55481;48.764;8.936;2023-04-07T10:11:42;96800;;;12.1;65
68489;BME280;55481;48.764;8.936;2023-04-07T10:19:14;96790;;;13.6;62.5
68489;BME280;55481;48.764;8.936;2023-04-07T10:21:45;96790;;;13.9;62
68489;BME280;55481;48.764;8.936;2023-04-07T10:24:18;96790;;;14.6;61
68489;BME280;55481;48.764;8.936;2023-04-07T10:26:49;96790;;;14.7;61
68489;BME280;55481;48.764;8.936;2023-04-07T10:29:17;96800;;;13.7;63.5
68489;BME280;55481;48.764;8.936;2023-04-07T10:32:01;96810;;;12.8;65.5
68489;BME280;55481;48.764;8.936;2023-04-07T10:34:54;96820;;;12.2;67
68489;BME280;55481;48.764;8.936;2023-04-07T10:37:11;96820;;;11.9;67.5
68489;BME280;55481;48.764;8.936;2023-04-07T10:41:57;96830;;;11.2;68.5
68489;BME280;55481;48.764;8.936;2023-04-07T10:44:45;96820;;;11.1;68
68489;BME280;55481;48.764;8.936;2023-04-07T10:50:15;96830;;;10.9;68
68489;BME280;55481;48.764;8.936;2023-04-07T10:52:21;96820;;;11;67.5
68489;BME280;55481;48.764;8.936;2023-04-07T10:57:08;96830;;;11.1;67
68489;BME280;55481;48.764;8.936;2023-04-07T10:59:32;96830;;;11.3;66.5
68489;BME280;55481;48.764;8.936;2023-04-07T11:02:34;96820;;;11.3;66.5
68489;BME280;55481;48.764;8.936;2023-04-07T11:04:35;96820;;;11.3;66.5
68489;BME280;55481;48.764;8.936;2023-04-07T11:06:58;96830;;;11.2;66.5
68489;BME280;55481;48.764;8.936;2023-04-07T11:14:31;96830;;;11;67
68489;BME280;55481;48.764;8.936;2023-04-07T11:17:01;96830;;;11;67
68489;BME280;55481;48.764;8.936;2023-04-07T11:19:41;96830;;;11;67
68489;BME280;55481;48.764;8.936;2023-04-07T11:22:17;96830;;;11;67
68489;BME280;55481;48.764;8.936;2023-04-07T11:24:34;96830;;;11;67
68489;BME280;55481;48.764;8.936;2023-04-07T11:27:04;96830;;;11;66.5
68489;BME280;55481;48.764;8.936;2023-04-07T11:29:34;96830;;;11.1;66.5
68489;BME280;55481;48.764;8.936;2023-04-07T11:32:12;96830;;;11.1;66.5
68489;BME280;55481;48.764;8.936;2023-04-07T11:34:43;96840;;;11.2;66
68489;BME280;55481;48.764;8.936;2023-04-07T11:37:22;96840;;;11.3;66
68489;BME280;55481;48.764;8.936;2023-04-07T11:39:50;96840;;;11.6;65.5
68489;BME280;55481;48.764;8.936;2023-04-07T11:42:30;96840;;;11.7;65.5
68489;BME280;55481;48.764;8.936;2023-04-07T11:44:46;96840;;;11.8;65.5
68489;BME280;55481;48.764;8.936;2023-04-07T11:49:55;96850;;;11.4;66.5
68489;BME280;55481;48.764;8.936;2023-04-07T11:52:39;96850;;;11.1;67
68489;BME280;55481;48.764;8.936;2023-04-07T11:55:16;96860;;;10.7;68
68489;BME280;55481;48.764;8.936;2023-04-07T11:59:49;96860;;;10.4;68.5
68489;BME280;55481;48.764;8.936;2023-04-07T12:02:35;96870;;;10.2;68.5
68489;BME280;55481;48.764;8.936;2023-04-07T12:04:55;96870;;;10.1;69
68489;BME280;55481;48.764;8.936;2023-04-07T12:09:46;96880;;;9.6;69.5
68489;BME280;55481;48.764;8.936;2023-04-07T12:22:20;96890;;;9.4;69
68489;BME280;55481;48.764;8.936;2023-04-07T12:24:51;96890;;;9.3;69
68489;BME280;55481;48.764;8.936;2023-04-07T12:27:22;96880;;;9.3;69
68489;BME280;55481;48.764;8.936;2023-04-07T12:29:52;96890;;;9.3;69
68489;BME280;55481;48.764;8.936;2023-04-07T12:35:13;96880;;;9.3;68.5
68489;BME280;55481;48.764;8.936;2023-04-07T12:37:36;96890;;;9.3;68.5
68489;BME280;55481;48.764;8.936;2023-04-07T12:40:07;96890;;;9.4;68.5
68489;BME280;55481;48.764;8.936;2023-04-07T12:52:40;96890;;;9.5;68
68489;BME280;55481;48.764;8.936;2023-04-07T12:55:05;96890;;;9.5;68
68489;BME280;55481;48.764;8.936;2023-04-07T12:57:35;96890;;;9.5;68
68489;BME280;55481;48.764;8.936;2023-04-07T13:00:06;96890;;;9.6;68
68489;BME280;55481;48.764;8.936;2023-04-07T13:02:38;96900;;;9.7;68
68489;BME280;55481;48.764;8.936;2023-04-07T13:05:08;96890;;;9.7;67.5
68489;BME280;55481;48.764;8.936;2023-04-07T13:07:40;96890;;;9.5;68
68489;BME280;55481;48.764;8.936;2023-04-07T13:10:10;96900;;;9.7;68
68489;BME280;55481;48.764;8.936;2023-04-07T13:12:48;96900;;;9.6;68
68489;BME280;55481;48.764;8.936;2023-04-07T13:15:19;96900;;;9.8;68
68489;BME280;55481;48.764;8.936;2023-04-07T13:17:43;96900;;;9.9;67.5
68489;BME280;55481;48.764;8.936;2023-04-07T13:20:14;96900;;;9.5;68.5
68489;BME280;55481;48.764;8.936;2023-04-07T13:22:46;96900;;;9.7;68
68489;BME280;55481;48.764;8.936;2023-04-07T13:25:16;96910;;;9.3;69
68489;BME280;55481;48.764;8.936;2023-04-07T13:27:40;96910;;;9.1;69.5
68489;BME280;55481;48.764;8.936;2023-04-07T13:40:14;96900;;;8.9;69.5
68489;BME280;55481;48.764;8.936;2023-04-07T13:42:47;96900;;;9;69.5
68489;BME280;55481;48.764;8.936;2023-04-07T13:45:15;96900;;;9;69.5
68489;BME280;55481;48.764;8.936;2023-04-07T13:47:46;96900;;;9.2;69
68489;BME280;55481;48.764;8.936;2023-04-07T13:53:00;96900;;;9.3;68.5
68489;BME280;55481;48.764;8.936;2023-04-07T13:55:31;96890;;;9.3;68.5
68489;BME280;55481;48.764;8.936;2023-04-07T14:02:56;96890;;;9;69.5
68489;BME280;55481;48.764;8.936;2023-04-07T14:05:27;96900;;;9;69
68489;BME280;55481;48.764;8.936;2023-04-07T14:07:58;96890;;;9.2;68.5
68489;BME280;55481;48.764;8.936;2023-04-07T14:12:53;96890;;;9.2;68.5
68489;BME280;55481;48.764;8.936;2023-04-07T14:15:24;96890;;;9.3;68.5
68489;BME280;55481;48.764;8.936;2023-04-07T14:17:54;96890;;;9.2;69
68489;BME280;55481;48.764;8.936;2023-04-07T14:20:26;96890;;;9.2;69
68489;BME280;55481;48.764;8.936;2023-04-07T14:22:56;96890;;;9.2;69
68489;BME280;55481;48.764;8.936;2023-04-07T14:25:27;96890;;;9.6;68
68489;BME280;55481;48.764;8.936;2023-04-07T14:27:57;96890;;;9.8;67.5
68489;BME280;55481;48.764;8.936;2023-04-07T14:30:28;96890;;;9.8;67.5
68489;BME280;55481;48.764;8.936;2023-04-07T14:32:59;96890;;;9.9;67.5
68489;BME280;55481;48.764;8.936;2023-04-07T14:43:03;96890;;;9.4;69
68489;BME280;55481;48.764;8.936;2023-04-07T14:48:30;96890;;;9.7;68
68489;BME280;55481;48.764;8.936;2023-04-07T14:50:47;96890;;;9.6;68.5
68489;BME280;55481;48.764;8.936;2023-04-07T14:53:17;96900;;;9.6;68.5
68489;BME280;55481;48.764;8.936;2023-04-07T14:58:11;96890;;;10.1;67.5
68489;BME280;55481;48.764;8.936;2023-04-07T15:00:44;96890;;;10.2;67.5
68489;BME280;55481;48.764;8.936;2023-04-07T15:03:12;96890;;;10.6;67
68489;BME280;55481;48.764;8.936;2023-04-07T15:05:44;96890;;;10.7;66.5
68489;BME280;55481;48.764;8.936;2023-04-07T15:08:21;96900;;;10.4;67.5
68489;BME280;55481;48.764;8.936;2023-04-07T15:10:58;96900;;;10.4;68
68489;BME280;55481;48.764;8.936;2023-04-07T15:15:46;96900;;;10.7;67.5
68489;BME280;55481;48.764;8.936;2023-04-07T15:18:16;96900;;;10.8;67
68489;BME280;55481;48.764;8.936;2023-04-07T15:20:47;96900;;;10.4;68.5
68489;BME280;55481;48.764;8.936;2023-04-07T15:25:44;96910;;;10;69
68489;BME280;55481;48.764;8.936;2023-04-07T15:28:14;96910;;;9.8;69.5
68489;BME280;55481;48.764;8.936;2023-04-07T15:38:17;96910;;;9.6;69.5
68489;BME280;55481;48.764;8.936;2023-04-07T15:43:18;96910;;;9.8;69
68489;BME280;55481;48.764;8.936;2023-04-07T15:45:49;96910;;;9.6;69.5
68489;BME280;55481;48.764;8.936;2023-04-07T15:58:42;96920;;;9.8;69.5
68489;BME280;55481;48.764;8.936;2023-04-07T16:01:19;96920;;;9.9;69
68489;BME280;55481;48.764;8.936;2023-04-07T16:06:00;96920;;;9.9;69
68489;BME280;55481;48.764;8.936;2023-04-07T16:08:31;96920;;;10.2;68.5
68489;BME280;55481;48.764;8.936;2023-04-07T16:13:26;96920;;;10.7;67.5
68489;BME280;55481;48.764;8.936;2023-04-07T16:15:57;96920;;;10.9;67.5
68489;BME280;55481;48.764;8.936;2023-04-07T16:23:30;96920;;;11.1;67.5
68489;BME280;55481;48.764;8.936;2023-04-07T16:26:00;96920;;;11.1;67.5
68489;BME280;55481;48.764;8.936;2023-04-07T16:28:31;96920;;;11.2;68
68489;BME280;55481;48.764;8.936;2023-04-07T16:31:01;96920;;;11;68
68489;BME280;55481;48.764;8.936;2023-04-07T16:36:09;96930;;;10.5;69.5
68489;BME280;55481;48.764;8.936;2023-04-07T16:38:40;96930;;;10.2;70
68489;BME280;55481;48.764;8.936;2023-04-07T16:41:12;96940;;;9.9;70.5
68489;BME280;55481;48.764;8.936;2023-04-07T16:43:35;96940;;;9.8;70.5
68489;BME280;55481;48.764;8.936;2023-04-07T16:53:38;96960;;;9.7;70.5
68489;BME280;55481;48.764;8.936;2023-04-07T16:56:17;96960;;;9.6;70.5
68489;BME280;55481;48.764;8.936;2023-04-07T16:58:40;96970;;;9.5;70.5
68489;BME280;55481;48.764;8.936;2023-04-07T17:01:16;96970;;;9.5;70.5
68489;BME280;55481;48.764;8.936;2023-04-07T17:03:41;96970;;;9.5;70.5
68489;BME280;55481;48.764;8.936;2023-04-07T17:06:11;96980;;;9.5;70.5
68489;BME280;55481;48.764;8.936;2023-04-07T17:08:42;96980;;;9.3;71
68489;BME280;55481;48.764;8.936;2023-04-07T17:11:15;96990;;;9.2;71
68489;BME280;55481;48.764;8.936;2023-04-07T17:23:53;97010;;;8.6;71.5
68489;BME280;55481;48.764;8.936;2023-04-07T17:26:24;97020;;;8.5;71.5
68489;BME280;55481;48.764;8.936;2023-04-07T17:28:55;97020;;;8.5;71.5
68489;BME280;55481;48.764;8.936;2023-04-07T17:31:18;97020;;;8.3;72
68489;BME280;55481;48.764;8.936;2023-04-07T17:33:49;97030;;;8.1;72
68489;BME280;55481;48.764;8.936;2023-04-07T17:36:20;97030;;;8.1;72
68489;BME280;55481;48.764;8.936;2023-04-07T17:38:51;97030;;;8.1;72
68489;BME280;55481;48.764;8.936;2023-04-07T17:48:54;97040;;;7.9;72
68489;BME280;55481;48.764;8.936;2023-04-07T17:51:25;97050;;;7.9;72
68489;BME280;55481;48.764;8.936;2023-04-07T17:54:02;97050;;;7.9;72
68489;BME280;55481;48.764;8.936;2023-04-07T17:56:33;97060;;;7.8;72
68489;BME280;55481;48.764;8.936;2023-04-07T17:59:04;97060;;;7.8;72
68489;BME280;55481;48.764;8.936;2023-04-07T18:01:28;97060;;;7.8;72
68489;BME280;55481;48.764;8.936;2023-04-07T18:03:59;97060;;;7.8;72
68489;BME280;55481;48.764;8.936;2023-04-07T18:06:29;97060;;;7.9;71.5
68489;BME280;55481;48.764;8.936;2023-04-07T18:09:02;97070;;;7.9;71.5
68489;BME280;55481;48.764;8.936;2023-04-07T18:14:02;97070;;;7.7;72
68489;BME280;55481;48.764;8.936;2023-04-07T18:19:03;97070;;;7.7;72
68489;BME280;55481;48.764;8.936;2023-04-07T18:29:06;97090;;;7.5;72
68489;BME280;55481;48.764;8.936;2023-04-07T18:31:57;97090;;;7.6;72
68489;BME280;55481;48.764;8.936;2023-04-07T18:36:50;97100;;;7.5;72
68489;BME280;55481;48.764;8.936;2023-04-07T18:39:22;97100;;;7.5;72
68489;BME280;55481;48.764;8.936;2023-04-07T18:44:15;97110;;;7.7;71.5
68489;BME280;55481;48.764;8.936;2023-04-07T18:46:47;97120;;;7.6;71.5
68489;BME280;55481;48.764;8.936;2023-04-07T18:49:16;97120;;;7.5;72
68489;BME280;55481;48.764;8.936;2023-04-07T18:51:48;97120;;;7.4;72
68489;BME280;55481;48.764;8.936;2023-04-07T18:54:25;97120;;;7.4;72
68489;BME280;55481;48.764;8.936;2023-04-07T18:57:01;97130;;;7.4;72.5
68489;BME280;55481;48.764;8.936;2023-04-07T19:01:49;97130;;;7.4;72.5
68489;BME280;55481;48.764;8.936;2023-04-07T19:04:20;97140;;;7.4;72
68489;BME280;55481;48.764;8.936;2023-04-07T19:06:52;97140;;;7.4;72
68489;BME280;55481;48.764;8.936;2023-04-07T19:11:47;97150;;;7.3;72.5
68489;BME280;55481;48.764;8.936;2023-04-07T19:21:49;97160;;;7.4;72
68489;BME280;55481;48.764;8.936;2023-04-07T19:24:19;97160;;;7.3;72
68489;BME280;55481;48.764;8.936;2023-04-07T19:26:50;97160;;;7.4;72
68489;BME280;55481;48.764;8.936;2023-04-07T19:31:58;97170;;;7.3;72
68489;BME280;55481;48.764;8.936;2023-04-07T19:34:29;97160;;;7.3;72
68489;BME280;55481;48.764;8.936;2023-04-07T19:37:00;97160;;;7.3;72.5
68489;BME280;55481;48.764;8.936;2023-04-07T19:41:55;97170;;;7.3;72
68489;BME280;55481;48.764;8.936;2023-04-07T19:51:58;97180;;;7.2;72.5
68489;BME280;55481;48.764;8.936;2023-04-07T19:54:29;97180;;;7.1;72.5
68489;BME280;55481;48.764;8.936;2023-04-07T19:57:00;97180;;;7.2;72.5
68489;BME280;55481;48.764;8.936;2023-04-07T19:59:30;97180;;;7.2;72.5
68489;BME280;55481;48.764;8.936;2023-04-07T20:02:01;97180;;;7.2;72.5
68489;BME280;55481;48.764;8.936;2023-04-07T20:04:32;97180;;;7.1;72.5
68489;BME280;55481;48.764;8.936;2023-04-07T20:12:25;97190;;;7.3;72
68489;BME280;55481;48.764;8.936;2023-04-07T20:15:00;97190;;;7.3;72
68489;BME280;55481;48.764;8.936;2023-04-07T20:17:18;97180;;;7.4;72
68489;BME280;55481;48.764;8.936;2023-04-07T20:22:11;97180;;;7.4;72
68489;BME280;55481;48.764;8.936;2023-04-07T20:24:42;97180;;;7.5;72
68489;BME280;55481;48.764;8.936;2023-04-07T20:27:13;97190;;;7.5;72
68489;BME280;55481;48.764;8.936;2023-04-07T20:29:45;97190;;;7.5;72
68489;BME280;55481;48.764;8.936;2023-04-07T20:37:29;97190;;;7.4;72.5
68489;BME280;55481;48.764;8.936;2023-04-07T20:42:24;97190;;;7.4;72.5
68489;BME280;55481;48.764;8.936;2023-04-07T20:44:54;97190;;;7.4;72
68489;BME280;55481;48.764;8.936;2023-04-07T20:49:47;97190;;;7.4;72
68489;BME280;55481;48.764;8.936;2023-04-07T20:52:19;97190;;;7.4;72
68489;BME280;55481;48.764;8.936;2023-04-07T20:54:49;97190;;;7.3;72.5
68489;BME280;55481;48.764;8.936;2023-04-07T20:57:20;97190;;;7.3;72.5
68489;BME280;55481;48.764;8.936;2023-04-07T20:59:53;97190;;;7.3;72.5